Weather at El Dorado International Airport

Public forecast

Using degrees Celsius for public forecast. Weather courtesy of forecast.io.

Current aviation weather report (METAR) for El Dorado International Airport

Retrieved 2020/12/01 17:00 UTC (15 minutes ago):

SKBO 011700Z 01004KT 9999 VCSH BKN020 19/11 A3033 NOSIG RMKVCSH SE

Aviation forecast (TAF) for El Dorado International Airport

Retrieved 2020/12/01 12:00 UTC (5 hours ago):

TAF SKBO 011030Z 0112/0212 VRB02KT 9999 FEW020 SCT070 BECMG 0114/0116 14008KT TEMPO 0119/0122 DZ SCT017TCU BKN080 BECMG 0201/0203 VRB02KT TX20/0118Z TN08/0210Z